createdAt,value
2019-03-10T00:01:34.331Z,1.25
2019-03-10T00:04:03.204Z,1.25
2019-03-10T00:06:31.616Z,1.72
2019-03-10T00:09:02.211Z,1.57
2019-03-10T00:11:30.233Z,3.20
2019-03-10T00:13:59.487Z,1.10
2019-03-10T00:16:27.577Z,1.42
2019-03-10T00:18:55.967Z,1.17
2019-03-10T00:21:24.249Z,2.65
2019-03-10T00:23:52.910Z,1.85
2019-03-10T00:26:21.193Z,1.17
2019-03-10T00:28:49.445Z,4.25
2019-03-10T00:31:17.640Z,1.85
2019-03-10T00:33:46.719Z,1.47
2019-03-10T00:36:14.928Z,2.27
2019-03-10T00:39:12.459Z,1.55
2019-03-10T00:42:17.800Z,1.82
2019-03-10T00:45:38.475Z,1.70
2019-03-10T00:48:46.918Z,1.15
2019-03-10T00:52:11.642Z,2.42
2019-03-10T00:54:39.784Z,1.05
2019-03-10T00:57:07.955Z,0.95
2019-03-10T00:59:36.373Z,0.68
2019-03-10T01:02:04.713Z,0.82
2019-03-10T01:04:34.979Z,1.85
2019-03-10T01:07:03.873Z,0.78
2019-03-10T01:09:31.938Z,2.72
2019-03-10T01:12:00.795Z,1.85
2019-03-10T01:14:30.096Z,0.90
2019-03-10T01:16:58.156Z,0.90
2019-03-10T01:19:26.959Z,1.32
2019-03-10T01:21:55.933Z,1.37
2019-03-10T01:24:24.963Z,1.00
2019-03-10T01:26:53.429Z,1.45
2019-03-10T01:29:21.921Z,2.58
2019-03-10T01:32:37.889Z,1.20
2019-03-10T01:35:09.830Z,1.05
2019-03-10T01:37:37.839Z,1.40
2019-03-10T01:40:07.652Z,2.02
2019-03-10T01:42:35.703Z,2.67
2019-03-10T01:45:04.081Z,1.12
2019-03-10T01:47:33.701Z,0.90
2019-03-10T01:50:02.044Z,2.35
2019-03-10T01:52:30.261Z,1.40
2019-03-10T01:54:58.511Z,1.37
2019-03-10T01:57:26.599Z,0.82
2019-03-10T01:59:54.758Z,1.05
2019-03-10T02:02:25.508Z,1.52
2019-03-10T02:04:53.420Z,0.85
2019-03-10T02:07:22.070Z,1.25
2019-03-10T02:09:50.444Z,0.85
2019-03-10T02:12:18.719Z,2.25
2019-03-10T02:14:46.968Z,1.47
2019-03-10T02:17:15.296Z,0.90
2019-03-10T02:19:43.703Z,1.52
2019-03-10T02:22:13.198Z,1.62
2019-03-10T02:24:41.107Z,2.95
2019-03-10T02:27:09.306Z,1.85
2019-03-10T02:29:37.384Z,1.20
2019-03-10T02:32:05.960Z,2.98
2019-03-10T02:34:34.212Z,1.60
2019-03-10T02:37:02.423Z,1.95
2019-03-10T02:39:31.792Z,1.90
2019-03-10T02:41:59.762Z,1.02
2019-03-10T02:44:27.955Z,1.55
2019-03-10T02:46:55.999Z,0.93
2019-03-10T02:49:24.411Z,0.98
2019-03-10T02:51:52.341Z,1.45
2019-03-10T02:54:20.555Z,1.55
2019-03-10T02:56:48.697Z,2.80
2019-03-10T02:59:17.289Z,2.10
2019-03-10T03:01:45.568Z,1.25
2019-03-10T03:04:13.827Z,1.45
2019-03-10T03:06:42.833Z,1.92
2019-03-10T03:09:11.193Z,1.92
2019-03-10T03:11:40.337Z,1.60
2019-03-10T03:14:08.048Z,1.55
2019-03-10T03:16:38.358Z,1.25
2019-03-10T03:19:06.334Z,0.68
2019-03-10T03:21:43.095Z,0.90
2019-03-10T03:24:04.258Z,1.22
2019-03-10T03:26:32.284Z,1.47
2019-03-10T03:29:00.489Z,1.17
2019-03-10T03:31:28.969Z,2.85
2019-03-10T03:33:57.336Z,1.20
2019-03-10T03:36:30.885Z,0.78
2019-03-10T03:39:14.441Z,1.60
2019-03-10T03:41:42.936Z,1.25
2019-03-10T03:44:10.958Z,1.90
2019-03-10T03:46:39.071Z,1.55
2019-03-10T03:49:07.572Z,1.80
2019-03-10T03:51:35.764Z,2.10
2019-03-10T03:54:04.133Z,0.65
2019-03-10T03:56:32.317Z,0.93
2019-03-10T03:59:00.466Z,1.00
2019-03-10T04:01:38.958Z,1.00
2019-03-10T04:04:07.198Z,0.20
2019-03-10T04:06:35.569Z,0.25
2019-03-10T04:09:05.908Z,0.42
2019-03-10T04:11:34.312Z,1.30
2019-03-10T04:16:43.622Z,0.25
2019-03-10T04:19:12.772Z,0.37
2019-03-10T04:21:41.492Z,1.60
2019-03-10T04:24:09.941Z,0.88
2019-03-10T04:26:38.157Z,0.72
2019-03-10T04:29:06.331Z,0.20
2019-03-10T04:31:34.376Z,0.40
2019-03-10T04:34:02.555Z,2.45
2019-03-10T04:36:30.427Z,1.10
2019-03-10T04:38:58.466Z,1.20
2019-03-10T04:41:26.672Z,0.28
2019-03-10T04:43:54.923Z,0.47
2019-03-10T04:46:23.366Z,1.00
2019-03-10T04:48:51.040Z,0.33
2019-03-10T04:51:19.482Z,1.52
2019-03-10T04:53:47.709Z,0.30
2019-03-10T04:56:24.647Z,1.25
2019-03-10T04:58:52.868Z,0.30
2019-03-10T05:01:21.977Z,1.13
2019-03-10T05:03:50.048Z,0.80
2019-03-10T05:06:18.352Z,0.55
2019-03-10T05:08:46.415Z,0.75
2019-03-10T05:11:14.455Z,0.82
2019-03-10T05:13:42.770Z,0.93
2019-03-10T05:16:12.456Z,0.40
2019-03-10T05:18:40.866Z,2.52
2019-03-10T05:21:09.344Z,0.40
2019-03-10T05:23:42.180Z,2.08
2019-03-10T05:26:10.952Z,0.98
2019-03-10T05:28:41.969Z,1.02
2019-03-10T05:31:10.216Z,0.90
2019-03-10T05:33:38.273Z,0.82
2019-03-10T05:36:06.055Z,1.80
2019-03-10T05:38:34.221Z,1.65
2019-03-10T05:41:04.328Z,3.40
2019-03-10T05:43:34.924Z,1.77
2019-03-10T05:46:03.131Z,3.22
2019-03-10T05:48:31.842Z,1.87
2019-03-10T05:50:59.891Z,3.02
2019-03-10T05:53:28.552Z,2.00
2019-03-10T05:55:56.886Z,3.37
2019-03-10T05:58:25.104Z,1.57
2019-03-10T06:00:53.411Z,4.50
2019-03-10T06:03:21.662Z,1.52
2019-03-10T06:05:49.792Z,3.20
2019-03-10T06:08:17.911Z,1.92
2019-03-10T06:10:46.055Z,1.32
2019-03-10T06:13:15.997Z,3.08
2019-03-10T06:15:44.064Z,2.65
2019-03-10T06:18:13.924Z,3.15
2019-03-10T06:20:42.034Z,3.35
2019-03-10T06:23:09.767Z,2.95
2019-03-10T06:25:39.248Z,4.60
2019-03-10T06:28:07.508Z,2.77
2019-03-10T06:30:35.176Z,1.45
2019-03-10T06:33:03.756Z,2.52
2019-03-10T06:35:32.132Z,3.42
2019-03-10T06:38:00.316Z,6.95
2019-03-10T06:40:32.139Z,2.58
2019-03-10T06:42:57.904Z,3.95
2019-03-10T06:45:26.280Z,5.22
2019-03-10T06:47:54.710Z,1.62
2019-03-10T06:50:23.819Z,1.30
2019-03-10T06:52:52.111Z,2.05
2019-03-10T06:55:20.488Z,4.42
2019-03-10T06:57:48.597Z,9.83
2019-03-10T07:00:17.722Z,5.12
2019-03-10T07:02:45.808Z,4.22
2019-03-10T07:05:14.361Z,3.10
2019-03-10T07:07:42.479Z,3.90
2019-03-10T07:10:12.788Z,5.37
2019-03-10T07:12:41.325Z,2.65
2019-03-10T07:15:10.108Z,2.10
2019-03-10T07:17:38.268Z,2.58
2019-03-10T07:20:09.028Z,2.83
2019-03-10T07:25:05.835Z,4.42
2019-03-10T07:27:49.572Z,3.00
2019-03-10T07:30:52.531Z,4.00
2019-03-10T07:33:35.165Z,3.60
2019-03-10T07:36:28.714Z,3.30
2019-03-10T07:39:14.686Z,1.67
2019-03-10T07:42:20.310Z,3.35
2019-03-10T07:45:10.978Z,2.95
2019-03-10T07:47:48.039Z,5.97
2019-03-10T07:50:44.671Z,3.45
2019-03-10T07:53:20.707Z,4.35
2019-03-10T07:56:20.625Z,4.75
2019-03-10T07:59:14.528Z,2.58
2019-03-10T08:01:53.086Z,2.65
2019-03-10T08:04:36.956Z,2.77
2019-03-10T08:07:23.767Z,4.42
2019-03-10T08:10:17.017Z,2.90
2019-03-10T08:13:09.452Z,2.52
2019-03-10T08:15:46.292Z,3.65
2019-03-10T08:18:36.912Z,2.25
2019-03-10T08:21:27.515Z,2.22
2019-03-10T08:24:20.656Z,2.47
2019-03-10T08:27:11.441Z,2.05
2019-03-10T08:30:14.551Z,1.87
2019-03-10T08:33:01.353Z,1.90
2019-03-10T08:35:40.764Z,1.77
2019-03-10T08:38:28.200Z,1.67
2019-03-10T08:41:19.040Z,0.50
2019-03-10T08:46:35.142Z,0.17
2019-03-10T08:49:29.171Z,0.47
2019-03-10T08:52:04.855Z,0.33
2019-03-10T08:54:37.598Z,0.37
2019-03-10T08:57:27.588Z,2.85
2019-03-10T09:00:05.122Z,0.78
2019-03-10T09:02:51.265Z,0.50
2019-03-10T09:05:55.815Z,1.00
2019-03-10T09:08:33.475Z,0.20
2019-03-10T09:11:34.457Z,0.35
2019-03-10T09:17:24.005Z,0.35
2019-03-10T09:20:11.817Z,0.60
2019-03-10T09:23:05.249Z,0.60
2019-03-10T09:25:59.596Z,0.45
2019-03-10T09:28:58.984Z,1.25
2019-03-10T09:31:37.979Z,0.30
2019-03-10T09:34:31.324Z,1.30
2019-03-10T09:37:31.784Z,0.55
2019-03-10T09:40:17.591Z,1.00
2019-03-10T09:43:10.722Z,0.72
2019-03-10T09:45:49.787Z,0.28
2019-03-10T09:48:25.943Z,0.33
2019-03-10T09:51:28.068Z,0.82
2019-03-10T09:54:27.781Z,0.70
2019-03-10T09:57:23.830Z,0.70
2019-03-10T10:00:04.377Z,0.50
2019-03-10T10:03:00.874Z,0.37
2019-03-10T10:05:49.225Z,0.37
2019-03-10T10:08:50.153Z,0.78
2019-03-10T10:11:40.480Z,4.33
2019-03-10T10:14:30.879Z,3.92
2019-03-10T10:17:17.316Z,1.45
2019-03-10T10:20:23.328Z,2.22
2019-03-10T10:23:17.439Z,1.87
2019-03-10T10:25:56.335Z,1.60
2019-03-10T10:28:59.510Z,0.45
2019-03-10T10:31:46.953Z,1.00
2019-03-10T10:34:38.161Z,0.72
2019-03-10T10:37:52.200Z,0.50
2019-03-10T10:41:03.673Z,2.20
2019-03-10T10:44:08.578Z,2.67
2019-03-10T10:47:17.276Z,1.57
2019-03-10T10:50:33.789Z,1.25
2019-03-10T10:53:43.605Z,0.65
2019-03-10T10:56:52.094Z,1.00
2019-03-10T11:00:01.580Z,0.90
2019-03-10T11:03:20.562Z,1.75
2019-03-10T11:06:33.377Z,0.90
2019-03-10T11:09:57.971Z,2.42
2019-03-10T11:13:05.793Z,0.40
2019-03-10T11:16:10.837Z,1.57
2019-03-10T11:19:20.025Z,0.50
2019-03-10T11:22:26.388Z,1.47
2019-03-10T11:25:49.624Z,1.98
2019-03-10T11:29:11.924Z,2.35
2019-03-10T11:32:25.739Z,1.42
2019-03-10T11:35:31.230Z,1.20
2019-03-10T11:38:46.745Z,4.40
2019-03-10T11:41:48.956Z,2.35
2019-03-10T11:45:10.056Z,1.65
2019-03-10T11:48:09.677Z,3.60
2019-03-10T11:51:44.445Z,0.60
2019-03-10T11:55:09.418Z,0.47
2019-03-10T11:58:15.250Z,0.40
2019-03-10T12:01:25.413Z,0.98
2019-03-10T12:04:29.731Z,0.55
2019-03-10T12:07:40.584Z,1.55
2019-03-10T12:10:32.793Z,0.60
2019-03-10T12:13:40.398Z,2.50
2019-03-10T12:16:34.728Z,0.98
2019-03-10T12:19:42.200Z,0.65
2019-03-10T12:22:36.933Z,0.95
2019-03-10T12:25:38.097Z,0.55
2019-03-10T12:28:41.519Z,0.72
2019-03-10T12:31:45.144Z,2.00
2019-03-10T12:34:36.977Z,0.47
2019-03-10T12:37:28.775Z,0.35
2019-03-10T12:40:24.298Z,0.90
2019-03-10T12:43:20.509Z,0.45
2019-03-10T12:46:15.747Z,0.88
2019-03-10T12:49:13.967Z,0.45
2019-03-10T12:52:08.885Z,1.60
2019-03-10T12:55:07.302Z,0.60
2019-03-10T12:58:00.463Z,1.30
2019-03-10T13:01:11.548Z,0.90
2019-03-10T13:06:34.517Z,1.42
2019-03-10T13:09:11.488Z,0.68
2019-03-10T13:11:45.437Z,0.70
2019-03-10T13:14:36.120Z,1.75
2019-03-10T13:17:23.512Z,0.68
2019-03-10T13:20:07.075Z,0.17
2019-03-10T13:22:47.533Z,1.77
2019-03-10T13:25:46.779Z,2.10
2019-03-10T13:28:32.272Z,1.45
2019-03-10T13:31:26.712Z,0.20
2019-03-10T13:34:14.474Z,0.70
2019-03-10T13:37:09.512Z,0.60
2019-03-10T13:40:01.301Z,0.98
2019-03-10T13:42:49.185Z,0.90
2019-03-10T13:45:31.528Z,0.65
2019-03-10T13:48:26.042Z,0.42
2019-03-10T13:50:58.468Z,0.10
2019-03-10T13:53:44.873Z,1.17
2019-03-10T13:56:33.419Z,0.42
2019-03-10T13:59:08.513Z,0.93
2019-03-10T14:01:53.277Z,1.02
2019-03-10T14:04:35.606Z,0.50
2019-03-10T14:07:43.481Z,0.33
2019-03-10T14:10:30.493Z,0.93
2019-03-10T14:13:15.340Z,0.50
2019-03-10T14:16:07.850Z,0.40
2019-03-10T14:19:04.093Z,1.50
2019-03-10T14:22:06.335Z,4.00
2019-03-10T14:24:51.239Z,0.40
2019-03-10T14:27:50.406Z,0.20
2019-03-10T14:30:35.498Z,0.30
2019-03-10T14:33:28.382Z,0.30
2019-03-10T14:36:16.981Z,1.45
2019-03-10T14:39:05.980Z,0.60
2019-03-10T14:41:59.175Z,0.75
2019-03-10T14:44:57.163Z,0.40
2019-03-10T14:47:46.426Z,0.25
2019-03-10T14:50:18.019Z,0.50
2019-03-10T14:55:14.548Z,9.33
2019-03-10T14:58:08.423Z,0.72
2019-03-10T15:00:57.433Z,1.45
2019-03-10T15:03:48.334Z,1.70
2019-03-10T15:06:40.199Z,0.15
2019-03-10T15:09:29.208Z,1.07
2019-03-10T15:12:21.525Z,0.47
2019-03-10T15:15:00.027Z,0.20
2019-03-10T15:17:31.463Z,0.47
2019-03-10T15:20:09.058Z,0.98
2019-03-10T15:22:41.318Z,0.70
2019-03-10T15:25:27.892Z,0.45
2019-03-10T15:28:12.000Z,0.30
2019-03-10T15:31:01.933Z,0.68
2019-03-10T15:33:52.418Z,1.90
2019-03-10T15:36:37.836Z,0.30
2019-03-10T15:39:10.510Z,0.45
2019-03-10T15:41:44.802Z,0.10
2019-03-10T15:44:41.010Z,2.25
2019-03-10T15:47:28.256Z,2.05
2019-03-10T15:50:46.589Z,0.40
2019-03-10T15:53:27.572Z,0.68
2019-03-10T15:56:00.412Z,0.40
2019-03-10T15:58:30.769Z,0.30
2019-03-10T16:00:59.378Z,2.33
2019-03-10T16:03:27.605Z,0.62
2019-03-10T16:05:57.068Z,2.60
2019-03-10T16:08:25.725Z,0.55
2019-03-10T16:10:54.996Z,0.20
2019-03-10T16:13:23.108Z,0.50
2019-03-10T16:15:51.223Z,1.55
2019-03-10T16:18:19.961Z,0.50
2019-03-10T16:20:48.515Z,1.85
2019-03-10T16:23:37.620Z,2.20
2019-03-10T16:26:06.040Z,0.42
2019-03-10T16:28:34.601Z,0.55
2019-03-10T16:31:03.247Z,0.60
2019-03-10T16:33:34.085Z,0.23
2019-03-10T16:36:02.355Z,0.78
2019-03-10T16:38:33.120Z,0.30
2019-03-10T16:41:03.149Z,0.90
2019-03-10T16:43:32.507Z,2.30
2019-03-10T16:46:01.453Z,3.98
2019-03-10T16:48:30.016Z,0.90
2019-03-10T16:51:02.554Z,1.80
2019-03-10T16:53:44.757Z,1.15
2019-03-10T16:56:16.023Z,1.22
2019-03-10T16:58:47.467Z,2.75
2019-03-10T17:01:17.600Z,2.58
2019-03-10T17:03:46.383Z,1.82
2019-03-10T17:06:16.822Z,1.85
2019-03-10T17:08:45.208Z,2.40
2019-03-10T17:11:14.228Z,1.57
2019-03-10T17:13:46.548Z,1.32
2019-03-10T17:16:16.460Z,2.00
2019-03-10T17:18:49.651Z,3.17
2019-03-10T17:21:18.931Z,3.20
2019-03-10T17:23:51.806Z,1.67
2019-03-10T17:26:23.445Z,1.25
2019-03-10T17:28:52.914Z,1.15
2019-03-10T17:31:29.156Z,1.40
2019-03-10T17:33:59.308Z,4.60
2019-03-10T17:36:30.968Z,1.47
2019-03-10T17:39:01.429Z,1.32
2019-03-10T17:41:37.855Z,1.95
2019-03-10T17:44:23.792Z,4.78
2019-03-10T17:47:01.965Z,2.72
2019-03-10T17:49:33.630Z,0.95
2019-03-10T17:52:14.019Z,1.47
2019-03-10T17:54:35.188Z,1.32
2019-03-10T17:57:03.647Z,2.02
2019-03-10T17:59:31.674Z,3.50
2019-03-10T18:02:08.534Z,2.92
2019-03-10T18:04:30.266Z,3.02
2019-03-10T18:07:00.327Z,2.98
2019-03-10T18:09:29.456Z,1.62
2019-03-10T18:11:58.452Z,2.08
2019-03-10T18:14:26.961Z,3.92
2019-03-10T18:16:55.712Z,2.33
2019-03-10T18:19:24.445Z,1.72
2019-03-10T18:21:53.062Z,1.62
2019-03-10T18:24:22.533Z,2.17
2019-03-10T18:26:51.157Z,2.58
2019-03-10T18:29:21.336Z,1.55
2019-03-10T18:31:49.814Z,3.80
2019-03-10T18:34:18.246Z,3.92
2019-03-10T18:36:47.914Z,3.70
2019-03-10T18:39:20.349Z,3.20
2019-03-10T18:41:48.820Z,2.58
2019-03-10T18:44:19.496Z,4.78
2019-03-10T18:46:50.080Z,4.05
2019-03-10T18:49:20.342Z,3.45
2019-03-10T18:51:50.312Z,6.33
2019-03-10T18:54:19.915Z,1.90
2019-03-10T18:56:50.066Z,3.15
2019-03-10T18:59:23.006Z,4.25
2019-03-10T19:01:51.472Z,4.87
2019-03-10T19:04:23.544Z,3.65
2019-03-10T19:06:53.088Z,3.25
2019-03-10T19:09:24.527Z,7.30
2019-03-10T19:11:53.835Z,6.40
2019-03-10T19:14:26.993Z,4.17
2019-03-10T19:16:55.639Z,3.67
2019-03-10T19:19:25.356Z,2.98
2019-03-10T19:21:53.585Z,4.37
2019-03-10T19:24:25.548Z,2.62
2019-03-10T19:26:53.870Z,4.25
2019-03-10T19:29:22.699Z,5.62
2019-03-10T19:31:51.545Z,5.72
2019-03-10T19:34:19.960Z,6.37
2019-03-10T19:36:57.057Z,7.05
2019-03-10T19:39:20.172Z,2.92
2019-03-10T19:41:48.800Z,7.10
2019-03-10T19:44:20.992Z,10.18
2019-03-10T19:46:49.028Z,5.83
2019-03-10T19:49:18.316Z,6.35
2019-03-10T19:51:49.807Z,6.53
2019-03-10T19:54:18.979Z,5.30
2019-03-10T19:56:49.327Z,9.38
2019-03-10T19:59:25.956Z,13.15
2019-03-10T20:01:55.388Z,9.78
2019-03-10T20:04:29.286Z,5.60
2019-03-10T20:06:56.208Z,8.93
2019-03-10T20:09:28.965Z,8.83
2019-03-10T20:12:02.372Z,6.22
2019-03-10T20:14:36.549Z,4.58
2019-03-10T20:17:10.519Z,7.72
2019-03-10T20:19:51.165Z,12.75
2019-03-10T20:24:51.349Z,6.92
2019-03-10T20:27:22.321Z,5.67
2019-03-10T20:29:52.900Z,5.33
2019-03-10T20:32:47.513Z,7.08
2019-03-10T20:35:25.619Z,7.95
2019-03-10T20:38:04.975Z,4.33
2019-03-10T20:40:36.096Z,6.50
2019-03-10T20:43:07.827Z,9.73
2019-03-10T20:45:36.355Z,9.03
2019-03-10T20:51:05.141Z,11.48
2019-03-10T20:53:35.680Z,6.62
2019-03-10T20:58:34.869Z,8.10
2019-03-10T21:01:13.646Z,5.17
2019-03-10T21:03:33.952Z,6.22
2019-03-10T21:06:02.674Z,7.87
2019-03-10T21:08:34.998Z,7.30
2019-03-10T21:11:04.434Z,6.78
2019-03-10T21:13:41.181Z,5.72
2019-03-10T21:16:12.879Z,6.87
2019-03-10T21:18:41.264Z,3.67
2019-03-10T21:21:10.280Z,3.17
2019-03-10T21:23:40.887Z,10.20
2019-03-10T21:26:10.340Z,3.95
2019-03-10T21:28:39.493Z,3.40
2019-03-10T21:31:10.210Z,5.15
2019-03-10T21:36:07.395Z,5.40
2019-03-10T21:38:36.492Z,5.72
2019-03-10T21:41:13.690Z,5.92
2019-03-10T21:43:35.556Z,4.00
2019-03-10T21:46:03.688Z,5.42
2019-03-10T21:48:32.151Z,3.58
2019-03-10T21:51:01.031Z,2.95
2019-03-10T21:53:29.199Z,4.60
2019-03-10T21:55:57.272Z,7.78
2019-03-10T21:58:26.619Z,10.20
2019-03-10T22:00:54.739Z,7.58
2019-03-10T22:04:12.655Z,6.20
2019-03-10T22:07:06.248Z,4.40
2019-03-10T22:10:00.796Z,5.58
2019-03-10T22:13:05.589Z,8.00
2019-03-10T22:16:05.566Z,6.72
2019-03-10T22:18:56.090Z,6.40
2019-03-10T22:21:53.460Z,3.92
2019-03-10T22:24:45.074Z,6.60
2019-03-10T22:27:41.548Z,6.50
2019-03-10T22:30:43.190Z,6.25
2019-03-10T22:33:34.800Z,5.72
2019-03-10T22:36:37.068Z,4.87
2019-03-10T22:39:38.185Z,7.75
2019-03-10T22:42:51.031Z,6.42
2019-03-10T22:45:47.608Z,9.55
2019-03-10T22:48:52.117Z,4.12
2019-03-10T22:51:48.799Z,8.65
2019-03-10T22:54:56.496Z,6.90
2019-03-10T22:57:50.492Z,11.80
2019-03-10T23:00:57.279Z,8.90
2019-03-10T23:03:52.571Z,7.97
2019-03-10T23:06:43.679Z,5.22
2019-03-10T23:12:31.598Z,6.28
2019-03-10T23:15:34.118Z,8.38
2019-03-10T23:18:21.917Z,5.62
2019-03-10T23:21:05.835Z,6.42
2019-03-10T23:24:02.534Z,5.67
2019-03-10T23:26:49.212Z,7.95
2019-03-10T23:29:35.703Z,7.80
2019-03-10T23:32:25.017Z,4.70
2019-03-10T23:35:14.550Z,7.03
2019-03-10T23:38:13.162Z,9.60
2019-03-10T23:41:01.114Z,5.85
2019-03-10T23:44:01.714Z,10.43
2019-03-10T23:46:49.578Z,8.78
2019-03-10T23:49:46.818Z,5.67
2019-03-10T23:52:59.466Z,7.85
2019-03-10T23:55:48.820Z,9.73
2019-03-10T23:58:40.094Z,8.03
